sensor_id;sensor_type;location;lat;lon;timestamp;P1;durP1;ratioP1;P2;durP2;ratioP2
22628;SDS011;11481;53.694;9.910;2023-05-10T00:00:16;4.65;;;2.95;;
22628;SDS011;11481;53.694;9.910;2023-05-10T00:02:43;4.78;;;2.38;;
22628;SDS011;11481;53.694;9.910;2023-05-10T00:05:10;5.38;;;2.75;;
22628;SDS011;11481;53.694;9.910;2023-05-10T00:07:37;4.93;;;2.70;;
22628;SDS011;11481;53.694;9.910;2023-05-10T00:10:03;5.13;;;2.58;;
22628;SDS011;11481;53.694;9.910;2023-05-10T00:12:30;7.70;;;3.10;;
22628;SDS011;11481;53.694;9.910;2023-05-10T00:14:57;4.80;;;2.80;;
22628;SDS011;11481;53.694;9.910;2023-05-10T00:17:24;6.38;;;2.97;;
22628;SDS011;11481;53.694;9.910;2023-05-10T00:19:50;5.60;;;2.70;;
22628;SDS011;11481;53.694;9.910;2023-05-10T00:22:17;8.52;;;3.17;;
22628;SDS011;11481;53.694;9.910;2023-05-10T00:24:43;5.97;;;2.92;;
22628;SDS011;11481;53.694;9.910;2023-05-10T00:27:10;6.75;;;3.15;;
22628;SDS011;11481;53.694;9.910;2023-05-10T00:29:37;6.60;;;3.03;;
22628;SDS011;11481;53.694;9.910;2023-05-10T00:32:04;6.93;;;3.25;;
22628;SDS011;11481;53.694;9.910;2023-05-10T00:34:31;5.43;;;3.03;;
22628;SDS011;11481;53.694;9.910;2023-05-10T00:36:57;6.38;;;3.20;;
22628;SDS011;11481;53.694;9.910;2023-05-10T00:39:24;5.68;;;2.92;;
22628;SDS011;11481;53.694;9.910;2023-05-10T00:41:52;7.07;;;3.10;;
22628;SDS011;11481;53.694;9.910;2023-05-10T00:44:19;10.00;;;3.33;;
22628;SDS011;11481;53.694;9.910;2023-05-10T00:46:45;4.10;;;2.53;;
22628;SDS011;11481;53.694;9.910;2023-05-10T00:49:13;4.70;;;2.63;;
22628;SDS011;11481;53.694;9.910;2023-05-10T00:51:40;7.45;;;3.80;;
22628;SDS011;11481;53.694;9.910;2023-05-10T00:54:09;5.45;;;2.75;;
22628;SDS011;11481;53.694;9.910;2023-05-10T00:56:38;4.13;;;2.50;;
22628;SDS011;11481;53.694;9.910;2023-05-10T00:59:07;5.15;;;2.95;;
22628;SDS011;11481;53.694;9.910;2023-05-10T01:01:35;9.00;;;3.22;;
22628;SDS011;11481;53.694;9.910;2023-05-10T01:04:02;5.63;;;2.90;;
22628;SDS011;11481;53.694;9.910;2023-05-10T01:06:30;8.75;;;3.25;;
22628;SDS011;11481;53.694;9.910;2023-05-10T01:08:57;6.32;;;2.90;;
22628;SDS011;11481;53.694;9.910;2023-05-10T01:11:23;8.88;;;3.22;;
22628;SDS011;11481;53.694;9.910;2023-05-10T01:13:52;5.38;;;3.10;;
22628;SDS011;11481;53.694;9.910;2023-05-10T01:16:23;6.35;;;3.22;;
22628;SDS011;11481;53.694;9.910;2023-05-10T01:18:52;7.28;;;3.00;;
22628;SDS011;11481;53.694;9.910;2023-05-10T01:32:47;6.90;;;2.90;;
22628;SDS011;11481;53.694;9.910;2023-05-10T01:35:17;4.53;;;2.90;;
22628;SDS011;11481;53.694;9.910;2023-05-10T01:40:19;6.10;;;2.80;;
22628;SDS011;11481;53.694;9.910;2023-05-10T01:42:53;4.38;;;2.92;;
22628;SDS011;11481;53.694;9.910;2023-05-10T01:45:33;5.75;;;3.30;;
22628;SDS011;11481;53.694;9.910;2023-05-10T01:48:06;5.30;;;3.08;;
22628;SDS011;11481;53.694;9.910;2023-05-10T01:50:36;7.35;;;3.17;;
22628;SDS011;11481;53.694;9.910;2023-05-10T01:53:06;7.10;;;2.75;;
22628;SDS011;11481;53.694;9.910;2023-05-10T01:55:37;7.47;;;3.10;;
22628;SDS011;11481;53.694;9.910;2023-05-10T01:58:10;5.10;;;2.95;;
22628;SDS011;11481;53.694;9.910;2023-05-10T02:00:43;7.30;;;2.95;;
22628;SDS011;11481;53.694;9.910;2023-05-10T02:03:11;5.40;;;3.28;;
22628;SDS011;11481;53.694;9.910;2023-05-10T02:05:40;7.40;;;3.33;;
22628;SDS011;11481;53.694;9.910;2023-05-10T02:08:08;4.65;;;3.00;;
22628;SDS011;11481;53.694;9.910;2023-05-10T02:10:36;6.65;;;2.92;;
22628;SDS011;11481;53.694;9.910;2023-05-10T02:13:05;6.63;;;3.45;;
22628;SDS011;11481;53.694;9.910;2023-05-10T02:15:34;5.75;;;3.20;;
22628;SDS011;11481;53.694;9.910;2023-05-10T02:18:03;5.60;;;2.75;;
22628;SDS011;11481;53.694;9.910;2023-05-10T02:20:31;6.35;;;3.08;;
22628;SDS011;11481;53.694;9.910;2023-05-10T02:22:59;6.70;;;3.17;;
22628;SDS011;11481;53.694;9.910;2023-05-10T02:25:27;7.38;;;3.00;;
22628;SDS011;11481;53.694;9.910;2023-05-10T02:27:56;6.22;;;2.63;;
22628;SDS011;11481;53.694;9.910;2023-05-10T02:30:25;6.88;;;3.08;;
22628;SDS011;11481;53.694;9.910;2023-05-10T02:32:52;9.07;;;3.22;;
22628;SDS011;11481;53.694;9.910;2023-05-10T02:35:20;6.10;;;2.97;;
22628;SDS011;11481;53.694;9.910;2023-05-10T02:37:48;7.22;;;3.47;;
22628;SDS011;11481;53.694;9.910;2023-05-10T02:40:16;6.47;;;3.25;;
22628;SDS011;11481;53.694;9.910;2023-05-10T02:42:44;7.30;;;3.30;;
22628;SDS011;11481;53.694;9.910;2023-05-10T02:45:14;4.53;;;2.67;;
22628;SDS011;11481;53.694;9.910;2023-05-10T02:47:48;7.13;;;3.38;;
22628;SDS011;11481;53.694;9.910;2023-05-10T02:50:14;5.00;;;2.92;;
22628;SDS011;11481;53.694;9.910;2023-05-10T02:52:43;6.18;;;3.10;;
22628;SDS011;11481;53.694;9.910;2023-05-10T02:55:14;5.57;;;2.80;;
22628;SDS011;11481;53.694;9.910;2023-05-10T02:57:43;5.75;;;3.10;;
22628;SDS011;11481;53.694;9.910;2023-05-10T03:00:16;5.97;;;3.42;;
22628;SDS011;11481;53.694;9.910;2023-05-10T03:02:43;7.53;;;3.40;;
22628;SDS011;11481;53.694;9.910;2023-05-10T03:05:10;6.18;;;3.05;;
22628;SDS011;11481;53.694;9.910;2023-05-10T03:07:37;5.22;;;3.22;;
22628;SDS011;11481;53.694;9.910;2023-05-10T03:10:04;6.53;;;2.90;;
22628;SDS011;11481;53.694;9.910;2023-05-10T03:18:22;6.22;;;3.53;;
22628;SDS011;11481;53.694;9.910;2023-05-10T03:20:57;6.55;;;3.25;;
22628;SDS011;11481;53.694;9.910;2023-05-10T03:26:11;5.15;;;2.58;;
22628;SDS011;11481;53.694;9.910;2023-05-10T03:28:42;6.30;;;3.00;;
22628;SDS011;11481;53.694;9.910;2023-05-10T03:31:09;4.32;;;2.78;;
22628;SDS011;11481;53.694;9.910;2023-05-10T03:33:45;6.07;;;3.40;;
22628;SDS011;11481;53.694;9.910;2023-05-10T03:36:16;7.38;;;3.75;;
22628;SDS011;11481;53.694;9.910;2023-05-10T03:38:43;8.45;;;3.38;;
22628;SDS011;11481;53.694;9.910;2023-05-10T03:41:10;5.15;;;2.92;;
22628;SDS011;11481;53.694;9.910;2023-05-10T03:43:37;5.15;;;3.13;;
22628;SDS011;11481;53.694;9.910;2023-05-10T03:46:04;6.90;;;3.20;;
22628;SDS011;11481;53.694;9.910;2023-05-10T03:48:31;4.18;;;2.75;;
22628;SDS011;11481;53.694;9.910;2023-05-10T03:50:58;6.68;;;3.45;;
22628;SDS011;11481;53.694;9.910;2023-05-10T03:53:25;5.15;;;2.97;;
22628;SDS011;11481;53.694;9.910;2023-05-10T03:55:52;7.13;;;3.05;;
22628;SDS011;11481;53.694;9.910;2023-05-10T03:58:19;5.60;;;3.13;;
22628;SDS011;11481;53.694;9.910;2023-05-10T04:00:46;5.32;;;3.13;;
22628;SDS011;11481;53.694;9.910;2023-05-10T04:03:12;7.20;;;3.55;;
22628;SDS011;11481;53.694;9.910;2023-05-10T04:05:41;8.27;;;3.67;;
22628;SDS011;11481;53.694;9.910;2023-05-10T04:08:07;8.73;;;3.20;;
22628;SDS011;11481;53.694;9.910;2023-05-10T04:10:34;6.65;;;3.25;;
22628;SDS011;11481;53.694;9.910;2023-05-10T04:13:00;9.48;;;3.35;;
22628;SDS011;11481;53.694;9.910;2023-05-10T04:15:27;6.85;;;3.17;;
22628;SDS011;11481;53.694;9.910;2023-05-10T04:17:54;5.95;;;3.45;;
22628;SDS011;11481;53.694;9.910;2023-05-10T04:20:21;8.20;;;2.97;;
22628;SDS011;11481;53.694;9.910;2023-05-10T04:22:48;9.02;;;3.67;;
22628;SDS011;11481;53.694;9.910;2023-05-10T04:25:14;6.47;;;3.40;;
22628;SDS011;11481;53.694;9.910;2023-05-10T04:27:41;5.55;;;3.10;;
22628;SDS011;11481;53.694;9.910;2023-05-10T04:30:08;6.00;;;3.03;;
22628;SDS011;11481;53.694;9.910;2023-05-10T04:32:34;4.95;;;3.08;;
22628;SDS011;11481;53.694;9.910;2023-05-10T04:35:01;5.70;;;3.05;;
22628;SDS011;11481;53.694;9.910;2023-05-10T04:37:29;6.22;;;3.45;;
22628;SDS011;11481;53.694;9.910;2023-05-10T04:39:56;7.28;;;3.30;;
22628;SDS011;11481;53.694;9.910;2023-05-10T04:42:24;6.78;;;3.50;;
22628;SDS011;11481;53.694;9.910;2023-05-10T04:44:50;5.60;;;3.30;;
22628;SDS011;11481;53.694;9.910;2023-05-10T04:47:18;4.88;;;2.70;;
22628;SDS011;11481;53.694;9.910;2023-05-10T04:49:47;5.78;;;3.10;;
22628;SDS011;11481;53.694;9.910;2023-05-10T04:52:14;6.53;;;3.08;;
22628;SDS011;11481;53.694;9.910;2023-05-10T04:54:43;5.57;;;2.88;;
22628;SDS011;11481;53.694;9.910;2023-05-10T04:57:09;7.18;;;2.97;;
22628;SDS011;11481;53.694;9.910;2023-05-10T04:59:36;7.18;;;3.20;;
22628;SDS011;11481;53.694;9.910;2023-05-10T05:02:03;5.38;;;3.45;;
22628;SDS011;11481;53.694;9.910;2023-05-10T05:04:31;5.88;;;3.25;;
22628;SDS011;11481;53.694;9.910;2023-05-10T05:06:58;5.45;;;3.40;;
22628;SDS011;11481;53.694;9.910;2023-05-10T05:09:25;6.55;;;3.78;;
22628;SDS011;11481;53.694;9.910;2023-05-10T05:11:52;9.57;;;3.55;;
22628;SDS011;11481;53.694;9.910;2023-05-10T05:14:19;5.45;;;3.25;;
22628;SDS011;11481;53.694;9.910;2023-05-10T05:16:47;6.90;;;3.60;;
22628;SDS011;11481;53.694;9.910;2023-05-10T05:19:13;6.93;;;3.40;;
22628;SDS011;11481;53.694;9.910;2023-05-10T05:21:40;5.90;;;2.92;;
22628;SDS011;11481;53.694;9.910;2023-05-10T05:24:08;4.80;;;2.80;;
22628;SDS011;11481;53.694;9.910;2023-05-10T05:26:36;6.25;;;3.55;;
22628;SDS011;11481;53.694;9.910;2023-05-10T05:29:02;6.30;;;3.33;;
22628;SDS011;11481;53.694;9.910;2023-05-10T05:31:29;7.88;;;3.15;;
22628;SDS011;11481;53.694;9.910;2023-05-10T05:33:56;8.57;;;3.38;;
22628;SDS011;11481;53.694;9.910;2023-05-10T05:36:23;6.70;;;3.22;;
22628;SDS011;11481;53.694;9.910;2023-05-10T05:38:51;8.52;;;3.65;;
22628;SDS011;11481;53.694;9.910;2023-05-10T05:41:18;7.53;;;3.42;;
22628;SDS011;11481;53.694;9.910;2023-05-10T05:43:44;5.80;;;3.40;;
22628;SDS011;11481;53.694;9.910;2023-05-10T05:46:11;7.38;;;3.67;;
22628;SDS011;11481;53.694;9.910;2023-05-10T05:48:39;7.90;;;3.40;;
22628;SDS011;11481;53.694;9.910;2023-05-10T05:51:08;5.53;;;3.35;;
22628;SDS011;11481;53.694;9.910;2023-05-10T05:53:39;7.72;;;3.65;;
22628;SDS011;11481;53.694;9.910;2023-05-10T05:56:05;6.90;;;3.30;;
22628;SDS011;11481;53.694;9.910;2023-05-10T05:58:32;6.00;;;3.13;;
22628;SDS011;11481;53.694;9.910;2023-05-10T06:00:59;7.03;;;3.47;;
22628;SDS011;11481;53.694;9.910;2023-05-10T06:03:25;6.85;;;3.78;;
22628;SDS011;11481;53.694;9.910;2023-05-10T06:05:52;5.68;;;3.33;;
22628;SDS011;11481;53.694;9.910;2023-05-10T06:08:18;5.75;;;3.40;;
22628;SDS011;11481;53.694;9.910;2023-05-10T06:10:46;7.35;;;3.22;;
22628;SDS011;11481;53.694;9.910;2023-05-10T06:13:13;6.00;;;3.35;;
22628;SDS011;11481;53.694;9.910;2023-05-10T06:15:39;7.22;;;3.60;;
22628;SDS011;11481;53.694;9.910;2023-05-10T06:18:06;5.38;;;3.60;;
22628;SDS011;11481;53.694;9.910;2023-05-10T06:20:33;7.75;;;3.45;;
22628;SDS011;11481;53.694;9.910;2023-05-10T06:22:59;8.27;;;3.38;;
22628;SDS011;11481;53.694;9.910;2023-05-10T06:25:51;7.40;;;3.33;;
22628;SDS011;11481;53.694;9.910;2023-05-10T06:28:18;5.45;;;3.03;;
22628;SDS011;11481;53.694;9.910;2023-05-10T06:30:44;7.22;;;3.35;;
22628;SDS011;11481;53.694;9.910;2023-05-10T06:33:11;6.25;;;3.55;;
22628;SDS011;11481;53.694;9.910;2023-05-10T06:35:38;6.53;;;3.40;;
22628;SDS011;11481;53.694;9.910;2023-05-10T06:38:04;5.70;;;3.50;;
22628;SDS011;11481;53.694;9.910;2023-05-10T06:40:31;5.88;;;3.60;;
22628;SDS011;11481;53.694;9.910;2023-05-10T06:42:58;5.57;;;3.03;;
22628;SDS011;11481;53.694;9.910;2023-05-10T06:45:25;6.50;;;3.42;;
22628;SDS011;11481;53.694;9.910;2023-05-10T06:47:54;4.95;;;3.05;;
22628;SDS011;11481;53.694;9.910;2023-05-10T06:50:20;5.18;;;2.92;;
22628;SDS011;11481;53.694;9.910;2023-05-10T06:52:47;8.60;;;3.33;;
22628;SDS011;11481;53.694;9.910;2023-05-10T06:55:15;8.25;;;3.35;;
22628;SDS011;11481;53.694;9.910;2023-05-10T06:57:42;5.15;;;3.30;;
22628;SDS011;11481;53.694;9.910;2023-05-10T07:00:09;8.07;;;3.38;;
22628;SDS011;11481;53.694;9.910;2023-05-10T07:02:39;6.47;;;3.78;;
22628;SDS011;11481;53.694;9.910;2023-05-10T07:05:06;12.00;;;3.25;;
22628;SDS011;11481;53.694;9.910;2023-05-10T07:07:32;6.53;;;3.20;;
22628;SDS011;11481;53.694;9.910;2023-05-10T07:09:59;7.28;;;3.47;;
22628;SDS011;11481;53.694;9.910;2023-05-10T07:12:26;5.90;;;3.47;;
22628;SDS011;11481;53.694;9.910;2023-05-10T07:14:53;6.53;;;3.30;;
22628;SDS011;11481;53.694;9.910;2023-05-10T07:17:20;7.03;;;3.40;;
22628;SDS011;11481;53.694;9.910;2023-05-10T07:19:49;6.78;;;3.90;;
22628;SDS011;11481;53.694;9.910;2023-05-10T07:22:16;5.53;;;3.22;;
22628;SDS011;11481;53.694;9.910;2023-05-10T07:24:43;7.88;;;3.20;;
22628;SDS011;11481;53.694;9.910;2023-05-10T07:27:10;7.22;;;3.42;;
22628;SDS011;11481;53.694;9.910;2023-05-10T07:29:36;6.43;;;3.42;;
22628;SDS011;11481;53.694;9.910;2023-05-10T07:32:03;6.63;;;3.20;;
22628;SDS011;11481;53.694;9.910;2023-05-10T07:34:30;5.28;;;3.17;;
22628;SDS011;11481;53.694;9.910;2023-05-10T07:37:00;5.90;;;3.33;;
22628;SDS011;11481;53.694;9.910;2023-05-10T07:39:27;7.03;;;3.45;;
22628;SDS011;11481;53.694;9.910;2023-05-10T07:41:56;5.35;;;3.15;;
22628;SDS011;11481;53.694;9.910;2023-05-10T07:44:23;10.82;;;3.95;;
22628;SDS011;11481;53.694;9.910;2023-05-10T07:46:49;6.10;;;3.58;;
22628;SDS011;11481;53.694;9.910;2023-05-10T07:49:16;6.03;;;3.50;;
22628;SDS011;11481;53.694;9.910;2023-05-10T07:51:44;9.02;;;3.47;;
22628;SDS011;11481;53.694;9.910;2023-05-10T07:54:11;8.38;;;3.25;;
22628;SDS011;11481;53.694;9.910;2023-05-10T07:56:40;6.38;;;3.38;;
22628;SDS011;11481;53.694;9.910;2023-05-10T07:59:14;6.20;;;3.42;;
22628;SDS011;11481;53.694;9.910;2023-05-10T08:01:42;6.38;;;3.38;;
22628;SDS011;11481;53.694;9.910;2023-05-10T08:04:09;11.25;;;3.88;;
22628;SDS011;11481;53.694;9.910;2023-05-10T08:06:38;6.00;;;3.38;;
22628;SDS011;11481;53.694;9.910;2023-05-10T08:09:06;5.47;;;3.42;;
22628;SDS011;11481;53.694;9.910;2023-05-10T08:11:32;5.45;;;3.33;;
22628;SDS011;11481;53.694;9.910;2023-05-10T08:14:00;8.05;;;3.72;;
22628;SDS011;11481;53.694;9.910;2023-05-10T08:16:27;7.10;;;3.70;;
22628;SDS011;11481;53.694;9.910;2023-05-10T08:18:55;11.38;;;4.20;;
22628;SDS011;11481;53.694;9.910;2023-05-10T08:21:22;8.48;;;3.90;;
22628;SDS011;11481;53.694;9.910;2023-05-10T08:23:48;6.15;;;3.50;;
22628;SDS011;11481;53.694;9.910;2023-05-10T08:26:15;6.20;;;3.67;;
22628;SDS011;11481;53.694;9.910;2023-05-10T08:28:42;5.70;;;3.45;;
22628;SDS011;11481;53.694;9.910;2023-05-10T08:31:08;7.50;;;3.83;;
22628;SDS011;11481;53.694;9.910;2023-05-10T08:33:35;5.35;;;3.28;;
22628;SDS011;11481;53.694;9.910;2023-05-10T08:36:02;6.15;;;3.47;;
22628;SDS011;11481;53.694;9.910;2023-05-10T08:38:28;12.77;;;3.67;;
22628;SDS011;11481;53.694;9.910;2023-05-10T08:40:55;6.57;;;3.58;;
22628;SDS011;11481;53.694;9.910;2023-05-10T08:43:26;7.35;;;3.50;;
22628;SDS011;11481;53.694;9.910;2023-05-10T08:45:56;9.50;;;4.03;;
22628;SDS011;11481;53.694;9.910;2023-05-10T08:48:32;6.28;;;3.50;;
22628;SDS011;11481;53.694;9.910;2023-05-10T08:51:00;6.07;;;3.40;;
22628;SDS011;11481;53.694;9.910;2023-05-10T08:53:29;7.68;;;3.60;;
22628;SDS011;11481;53.694;9.910;2023-05-10T08:55:58;8.55;;;3.92;;
22628;SDS011;11481;53.694;9.910;2023-05-10T08:58:26;6.85;;;3.80;;
22628;SDS011;11481;53.694;9.910;2023-05-10T09:00:53;7.00;;;3.83;;
22628;SDS011;11481;53.694;9.910;2023-05-10T09:03:23;8.95;;;3.67;;
22628;SDS011;11481;53.694;9.910;2023-05-10T09:05:49;8.98;;;4.47;;
22628;SDS011;11481;53.694;9.910;2023-05-10T09:08:18;8.32;;;4.30;;
22628;SDS011;11481;53.694;9.910;2023-05-10T09:10:48;6.72;;;3.97;;
22628;SDS011;11481;53.694;9.910;2023-05-10T09:13:16;6.78;;;3.60;;
22628;SDS011;11481;53.694;9.910;2023-05-10T09:15:45;10.27;;;4.90;;
22628;SDS011;11481;53.694;9.910;2023-05-10T09:18:13;7.65;;;4.18;;
22628;SDS011;11481;53.694;9.910;2023-05-10T09:20:40;7.45;;;4.00;;
22628;SDS011;11481;53.694;9.910;2023-05-10T09:23:07;5.95;;;3.60;;
22628;SDS011;11481;53.694;9.910;2023-05-10T09:25:36;6.43;;;4.20;;
22628;SDS011;11481;53.694;9.910;2023-05-10T09:28:06;7.82;;;3.80;;
22628;SDS011;11481;53.694;9.910;2023-05-10T09:30:34;9.25;;;4.10;;
22628;SDS011;11481;53.694;9.910;2023-05-10T09:33:03;8.80;;;4.53;;
22628;SDS011;11481;53.694;9.910;2023-05-10T09:35:31;7.88;;;4.38;;
22628;SDS011;11481;53.694;9.910;2023-05-10T09:38:00;9.98;;;4.30;;
22628;SDS011;11481;53.694;9.910;2023-05-10T09:40:29;10.90;;;4.38;;
22628;SDS011;11481;53.694;9.910;2023-05-10T09:45:24;9.55;;;4.32;;
22628;SDS011;11481;53.694;9.910;2023-05-10T09:47:54;8.57;;;4.78;;
22628;SDS011;11481;53.694;9.910;2023-05-10T09:50:21;7.25;;;4.35;;
22628;SDS011;11481;53.694;9.910;2023-05-10T09:52:58;7.65;;;4.35;;
22628;SDS011;11481;53.694;9.910;2023-05-10T09:55:43;7.65;;;4.65;;
22628;SDS011;11481;53.694;9.910;2023-05-10T09:58:12;7.32;;;4.43;;
22628;SDS011;11481;53.694;9.910;2023-05-10T10:00:42;7.45;;;4.60;;
22628;SDS011;11481;53.694;9.910;2023-05-10T10:03:13;9.93;;;4.82;;
22628;SDS011;11481;53.694;9.910;2023-05-10T10:05:46;7.05;;;3.85;;
22628;SDS011;11481;53.694;9.910;2023-05-10T10:08:14;8.75;;;4.15;;
22628;SDS011;11481;53.694;9.910;2023-05-10T10:10:41;8.80;;;4.90;;
22628;SDS011;11481;53.694;9.910;2023-05-10T10:13:12;11.55;;;4.70;;
22628;SDS011;11481;53.694;9.910;2023-05-10T10:15:39;8.57;;;4.90;;
22628;SDS011;11481;53.694;9.910;2023-05-10T10:18:08;9.45;;;4.90;;
22628;SDS011;11481;53.694;9.910;2023-05-10T10:20:39;12.25;;;4.35;;
22628;SDS011;11481;53.694;9.910;2023-05-10T10:23:07;8.93;;;4.82;;
22628;SDS011;11481;53.694;9.910;2023-05-10T10:25:34;8.00;;;4.38;;
22628;SDS011;11481;53.694;9.910;2023-05-10T10:28:07;12.27;;;5.20;;
22628;SDS011;11481;53.694;9.910;2023-05-10T10:30:55;8.20;;;4.78;;
22628;SDS011;11481;53.694;9.910;2023-05-10T10:33:36;9.25;;;4.82;;
22628;SDS011;11481;53.694;9.910;2023-05-10T10:36:06;9.25;;;4.95;;
22628;SDS011;11481;53.694;9.910;2023-05-10T10:44:54;8.70;;;4.90;;
22628;SDS011;11481;53.694;9.910;2023-05-10T10:54:51;15.13;;;5.40;;
22628;SDS011;11481;53.694;9.910;2023-05-10T10:57:25;10.65;;;5.13;;
22628;SDS011;11481;53.694;9.910;2023-05-10T11:00:38;10.40;;;5.60;;
22628;SDS011;11481;53.694;9.910;2023-05-10T11:10:52;9.43;;;5.47;;
22628;SDS011;11481;53.694;9.910;2023-05-10T11:16:12;10.85;;;5.28;;
22628;SDS011;11481;53.694;9.910;2023-05-10T11:18:40;8.50;;;5.28;;
22628;SDS011;11481;53.694;9.910;2023-05-10T11:21:33;9.90;;;5.18;;
22628;SDS011;11481;53.694;9.910;2023-05-10T11:24:14;10.77;;;5.30;;
22628;SDS011;11481;53.694;9.910;2023-05-10T11:26:44;10.65;;;5.10;;
22628;SDS011;11481;53.694;9.910;2023-05-10T11:29:12;8.80;;;5.18;;
22628;SDS011;11481;53.694;9.910;2023-05-10T11:31:43;10.77;;;5.63;;
22628;SDS011;11481;53.694;9.910;2023-05-10T11:34:11;10.77;;;5.82;;
22628;SDS011;11481;53.694;9.910;2023-05-10T11:36:50;11.48;;;6.80;;
22628;SDS011;11481;53.694;9.910;2023-05-10T11:39:29;13.48;;;6.25;;
22628;SDS011;11481;53.694;9.910;2023-05-10T11:41:56;11.05;;;5.72;;
22628;SDS011;11481;53.694;9.910;2023-05-10T11:44:29;13.45;;;6.32;;
22628;SDS011;11481;53.694;9.910;2023-05-10T11:46:58;10.10;;;6.10;;
22628;SDS011;11481;53.694;9.910;2023-05-10T11:49:26;10.60;;;6.28;;
22628;SDS011;11481;53.694;9.910;2023-05-10T11:51:53;12.40;;;6.22;;
22628;SDS011;11481;53.694;9.910;2023-05-10T11:54:29;9.88;;;5.93;;
22628;SDS011;11481;53.694;9.910;2023-05-10T11:57:01;10.68;;;5.55;;
22628;SDS011;11481;53.694;9.910;2023-05-10T11:59:28;10.30;;;5.75;;
22628;SDS011;11481;53.694;9.910;2023-05-10T12:01:56;9.85;;;5.68;;
22628;SDS011;11481;53.694;9.910;2023-05-10T12:04:23;11.38;;;5.80;;
22628;SDS011;11481;53.694;9.910;2023-05-10T12:06:50;11.75;;;5.70;;
22628;SDS011;11481;53.694;9.910;2023-05-10T12:09:17;12.00;;;6.18;;
22628;SDS011;11481;53.694;9.910;2023-05-10T12:11:56;13.10;;;6.28;;
22628;SDS011;11481;53.694;9.910;2023-05-10T12:14:25;11.65;;;6.25;;
22628;SDS011;11481;53.694;9.910;2023-05-10T12:16:54;10.27;;;6.38;;
22628;SDS011;11481;53.694;9.910;2023-05-10T12:19:23;11.48;;;6.50;;
22628;SDS011;11481;53.694;9.910;2023-05-10T12:21:49;10.98;;;6.80;;
22628;SDS011;11481;53.694;9.910;2023-05-10T12:24:16;13.00;;;6.63;;
22628;SDS011;11481;53.694;9.910;2023-05-10T12:26:45;12.32;;;6.78;;
22628;SDS011;11481;53.694;9.910;2023-05-10T12:29:18;10.68;;;6.15;;
22628;SDS011;11481;53.694;9.910;2023-05-10T12:31:49;13.02;;;6.38;;
22628;SDS011;11481;53.694;9.910;2023-05-10T12:34:26;11.48;;;6.32;;
22628;SDS011;11481;53.694;9.910;2023-05-10T12:36:56;11.73;;;6.45;;
22628;SDS011;11481;53.694;9.910;2023-05-10T12:39:24;10.48;;;6.05;;
22628;SDS011;11481;53.694;9.910;2023-05-10T12:41:51;11.73;;;6.78;;
22628;SDS011;11481;53.694;9.910;2023-05-10T12:44:20;13.50;;;6.53;;
22628;SDS011;11481;53.694;9.910;2023-05-10T12:46:46;11.25;;;5.85;;
22628;SDS011;11481;53.694;9.910;2023-05-10T12:49:13;11.82;;;6.28;;
22628;SDS011;11481;53.694;9.910;2023-05-10T12:51:41;11.98;;;5.80;;
22628;SDS011;11481;53.694;9.910;2023-05-10T12:54:08;8.82;;;5.38;;
22628;SDS011;11481;53.694;9.910;2023-05-10T12:56:35;10.73;;;5.88;;
22628;SDS011;11481;53.694;9.910;2023-05-10T12:59:03;14.48;;;6.20;;
22628;SDS011;11481;53.694;9.910;2023-05-10T13:01:29;8.77;;;5.45;;
22628;SDS011;11481;53.694;9.910;2023-05-10T13:03:56;17.70;;;5.70;;
22628;SDS011;11481;53.694;9.910;2023-05-10T13:06:23;9.95;;;5.25;;
22628;SDS011;11481;53.694;9.910;2023-05-10T13:08:49;8.20;;;4.93;;
22628;SDS011;11481;53.694;9.910;2023-05-10T13:11:16;10.57;;;5.55;;
22628;SDS011;11481;53.694;9.910;2023-05-10T13:13:44;7.72;;;4.25;;
22628;SDS011;11481;53.694;9.910;2023-05-10T13:16:13;7.20;;;4.75;;
22628;SDS011;11481;53.694;9.910;2023-05-10T13:18:39;7.70;;;4.85;;
22628;SDS011;11481;53.694;9.910;2023-05-10T13:21:06;6.88;;;4.07;;
22628;SDS011;11481;53.694;9.910;2023-05-10T13:23:33;8.13;;;4.57;;
22628;SDS011;11481;53.694;9.910;2023-05-10T13:26:02;8.38;;;4.60;;
22628;SDS011;11481;53.694;9.910;2023-05-10T13:28:31;7.93;;;4.88;;
22628;SDS011;11481;53.694;9.910;2023-05-10T13:30:58;7.07;;;4.68;;
22628;SDS011;11481;53.694;9.910;2023-05-10T13:33:27;8.10;;;4.55;;
22628;SDS011;11481;53.694;9.910;2023-05-10T13:35:54;9.13;;;4.90;;
22628;SDS011;11481;53.694;9.910;2023-05-10T13:38:22;8.05;;;4.45;;
22628;SDS011;11481;53.694;9.910;2023-05-10T13:40:49;8.13;;;4.43;;
22628;SDS011;11481;53.694;9.910;2023-05-10T13:43:18;7.88;;;4.50;;
22628;SDS011;11481;53.694;9.910;2023-05-10T13:45:47;6.80;;;4.28;;
22628;SDS011;11481;53.694;9.910;2023-05-10T13:48:14;7.32;;;4.00;;
22628;SDS011;11481;53.694;9.910;2023-05-10T13:50:41;7.30;;;4.22;;
22628;SDS011;11481;53.694;9.910;2023-05-10T13:53:10;6.55;;;3.88;;
22628;SDS011;11481;53.694;9.910;2023-05-10T13:55:37;7.82;;;4.07;;
22628;SDS011;11481;53.694;9.910;2023-05-10T13:58:03;6.85;;;4.38;;
22628;SDS011;11481;53.694;9.910;2023-05-10T14:00:30;8.68;;;3.90;;
22628;SDS011;11481;53.694;9.910;2023-05-10T14:02:58;7.32;;;4.07;;
22628;SDS011;11481;53.694;9.910;2023-05-10T14:05:25;8.80;;;4.50;;
22628;SDS011;11481;53.694;9.910;2023-05-10T14:07:53;9.52;;;3.85;;
22628;SDS011;11481;53.694;9.910;2023-05-10T14:10:21;10.00;;;4.45;;
22628;SDS011;11481;53.694;9.910;2023-05-10T14:12:47;7.85;;;4.35;;
22628;SDS011;11481;53.694;9.910;2023-05-10T14:15:15;9.48;;;4.32;;
22628;SDS011;11481;53.694;9.910;2023-05-10T14:17:42;8.07;;;4.65;;
22628;SDS011;11481;53.694;9.910;2023-05-10T14:20:09;7.82;;;4.45;;
22628;SDS011;11481;53.694;9.910;2023-05-10T14:22:38;6.88;;;4.22;;
22628;SDS011;11481;53.694;9.910;2023-05-10T14:25:06;9.10;;;5.40;;
22628;SDS011;11481;53.694;9.910;2023-05-10T14:27:33;9.35;;;4.82;;
22628;SDS011;11481;53.694;9.910;2023-05-10T14:30:00;10.95;;;4.97;;
22628;SDS011;11481;53.694;9.910;2023-05-10T14:32:26;9.48;;;5.18;;
22628;SDS011;11481;53.694;9.910;2023-05-10T14:34:53;9.95;;;4.80;;
22628;SDS011;11481;53.694;9.910;2023-05-10T14:37:20;8.15;;;5.07;;
22628;SDS011;11481;53.694;9.910;2023-05-10T14:39:47;8.57;;;5.68;;
22628;SDS011;11481;53.694;9.910;2023-05-10T14:42:13;8.00;;;5.32;;
22628;SDS011;11481;53.694;9.910;2023-05-10T14:44:41;6.57;;;4.40;;
22628;SDS011;11481;53.694;9.910;2023-05-10T14:47:08;10.40;;;5.35;;
22628;SDS011;11481;53.694;9.910;2023-05-10T14:49:37;10.38;;;5.45;;
22628;SDS011;11481;53.694;9.910;2023-05-10T14:52:04;9.18;;;5.30;;
22628;SDS011;11481;53.694;9.910;2023-05-10T14:54:30;11.10;;;5.97;;
22628;SDS011;11481;53.694;9.910;2023-05-10T14:56:59;9.52;;;5.20;;
22628;SDS011;11481;53.694;9.910;2023-05-10T14:59:26;6.55;;;4.50;;
22628;SDS011;11481;53.694;9.910;2023-05-10T15:01:58;7.90;;;4.93;;
22628;SDS011;11481;53.694;9.910;2023-05-10T15:04:26;8.65;;;5.30;;
22628;SDS011;11481;53.694;9.910;2023-05-10T15:06:54;8.55;;;5.50;;
22628;SDS011;11481;53.694;9.910;2023-05-10T15:09:25;8.45;;;5.30;;
22628;SDS011;11481;53.694;9.910;2023-05-10T15:11:53;8.18;;;5.38;;
22628;SDS011;11481;53.694;9.910;2023-05-10T15:14:21;6.18;;;4.35;;
22628;SDS011;11481;53.694;9.910;2023-05-10T15:16:51;8.57;;;5.25;;
22628;SDS011;11481;53.694;9.910;2023-05-10T15:19:17;8.55;;;5.03;;
22628;SDS011;11481;53.694;9.910;2023-05-10T15:21:44;7.72;;;5.00;;
22628;SDS011;11481;53.694;9.910;2023-05-10T15:24:14;7.15;;;4.70;;
22628;SDS011;11481;53.694;9.910;2023-05-10T15:26:41;7.95;;;5.03;;
22628;SDS011;11481;53.694;9.910;2023-05-10T15:29:08;8.20;;;5.20;;
22628;SDS011;11481;53.694;9.910;2023-05-10T15:31:34;7.43;;;4.03;;
22628;SDS011;11481;53.694;9.910;2023-05-10T15:34:01;9.43;;;4.40;;
22628;SDS011;11481;53.694;9.910;2023-05-10T15:36:31;8.40;;;4.60;;
22628;SDS011;11481;53.694;9.910;2023-05-10T15:38:59;7.88;;;4.60;;
22628;SDS011;11481;53.694;9.910;2023-05-10T15:41:26;8.23;;;5.97;;